Time;durP1;ratioP1;P1;durP2;ratioP2;P2;SDS_P1;SDS_P2;PMS_P1;PMS_P2;Temp;Humidity;BMP_temperature;BMP_pressure;BME280_temperature;BME280_humidity;BME280_pressure;Samples;Min_cycle;Max_cycle;Signal;HPM_P1;HPM_P2
2022/09/21 00:01:23;;;;;;;7.93;4.80;;;;;;;-145.49;100.00;62790.56;4989124;28;20041;-73
2022/09/21 00:03:54;;;;;;;5.93;3.58;;;;;;;-145.49;100.00;62790.56;4957539;28;20039;-73
2022/09/21 00:06:22;;;;;;;5.53;4.32;;;;;;;-145.49;100.00;62790.56;4978485;28;20046;-73
2022/09/21 00:08:48;;;;;;;7.10;3.95;;;;;;;-145.49;100.00;62790.56;4960358;28;20043;-73
2022/09/21 00:11:18;;;;;;;5.75;4.22;;;;;;;-145.49;100.00;62790.56;4983672;28;20039;-72
2022/09/21 00:13:45;;;;;;;4.57;3.50;;;;;;;-145.49;100.00;62790.56;4964813;28;20039;-72
2022/09/21 00:16:15;;;;;;;4.88;4.22;;;;;;;-145.49;100.00;62790.56;4969604;28;20038;-73
2022/09/21 00:18:42;;;;;;;4.82;3.30;;;;;;;-145.49;100.00;62790.56;4955120;28;20034;-73
2022/09/21 00:21:13;;;;;;;5.13;4.32;;;;;;;-145.49;100.00;62790.56;4968388;28;20037;-72
2022/09/21 00:23:40;;;;;;;5.55;5.00;;;;;;;-145.49;100.00;62790.56;4968911;28;20031;-72
2022/09/21 00:26:21;;;;;;;3.17;2.88;;;;;;;-145.49;100.00;62790.56;4971718;28;20042;-72
2022/09/21 00:28:58;;;;;;;5.68;4.90;;;;;;;-145.49;100.00;62790.56;4972717;28;20066;-73
2022/09/21 00:31:27;;;;;;;3.53;3.00;;;;;;;-145.49;100.00;62790.56;4966179;28;20034;-72
2022/09/21 00:33:54;;;;;;;4.40;2.83;;;;;;;-145.49;100.00;62790.56;4970553;28;20043;-72
2022/09/21 00:36:23;;;;;;;6.53;4.80;;;;;;;-145.49;100.00;62790.56;4972912;28;20038;-72
2022/09/21 00:38:52;;;;;;;8.02;5.25;;;;;;;-145.49;100.00;62790.56;4972822;28;20384;-73
2022/09/21 00:41:24;;;;;;;4.93;4.07;;;;;;;-145.49;100.00;62790.56;4971591;28;20035;-72
2022/09/21 00:44:24;;;;;;;12.52;4.97;;;;;;;-145.49;100.00;62790.56;4982506;28;20033;-72
2022/09/21 00:46:52;;;;;;;4.82;3.10;;;;;;;-145.49;100.00;62790.56;4970776;28;20051;-73
2022/09/21 00:49:26;;;;;;;7.55;4.47;;;;;;;-145.49;100.00;62790.56;4955411;28;20042;-73
2022/09/21 00:51:54;;;;;;;6.50;2.92;;;;;;;-145.49;100.00;62790.56;4967867;28;20050;-73
2022/09/21 00:54:37;;;;;;;5.30;4.32;;;;;;;-145.49;100.00;62790.56;4970885;28;20066;-73
2022/09/21 00:57:06;;;;;;;5.10;3.60;;;;;;;-145.49;100.00;62790.56;4963260;28;20158;-73
2022/09/21 00:59:37;;;;;;;7.70;3.53;;;;;;;-145.49;100.00;62790.56;4970803;28;20042;-72
2022/09/21 01:02:07;;;;;;;7.20;3.95;;;;;;;-145.49;100.00;62790.56;4965227;28;20042;-72
2022/09/21 01:04:37;;;;;;;6.72;5.20;;;;;;;-145.49;100.00;62790.56;4970989;28;20038;-72
2022/09/21 01:07:11;;;;;;;4.55;3.15;;;;;;;-145.49;100.00;62790.56;4966811;28;20038;-73
2022/09/21 01:09:39;;;;;;;7.80;4.25;;;;;;;-145.49;100.00;62790.56;4970154;28;20057;-73
2022/09/21 01:12:25;;;;;;;7.45;3.17;;;;;;;-145.49;100.00;62790.56;4970189;28;20043;-72
2022/09/21 01:14:54;;;;;;;8.45;4.22;;;;;;;-145.49;100.00;62790.56;4970292;28;20043;-72
2022/09/21 01:17:35;;;;;;;7.22;4.03;;;;;;;-145.49;100.00;62790.56;4970865;28;20041;-73
2022/09/21 01:20:31;;;;;;;6.72;4.43;;;;;;;-145.49;100.00;62790.56;4970622;28;20404;-73
2022/09/21 01:23:28;;;;;;;7.63;6.15;;;;;;;-145.49;100.00;62790.56;4967295;28;20057;-73
2022/09/21 01:26:22;;;;;;;3.55;2.97;;;;;;;-145.49;100.00;62790.56;4969124;28;20046;-73
2022/09/21 01:29:17;;;;;;;8.10;4.40;;;;;;;-145.49;100.00;62790.56;4961645;28;20386;-73
2022/09/21 01:31:53;;;;;;;4.97;3.45;;;;;;;-145.49;100.00;62790.56;4963663;28;20501;-72
2022/09/21 01:34:31;;;;;;;8.23;4.20;;;;;;;-145.49;100.00;62790.56;4970392;28;20058;-72
2022/09/21 01:37:05;;;;;;;5.47;4.13;;;;;;;-145.49;100.00;62790.56;4970924;28;20489;-72
2022/09/21 01:39:34;;;;;;;14.38;4.57;;;;;;;-145.49;100.00;62790.56;4970594;28;20035;-72
2022/09/21 01:42:04;;;;;;;5.68;3.20;;;;;;;-145.49;100.00;62790.56;4971641;28;20362;-72
2022/09/21 01:44:33;;;;;;;6.80;4.07;;;;;;;-145.49;100.00;62790.56;4972805;28;20489;-73
2022/09/21 01:47:02;;;;;;;4.82;4.05;;;;;;;-145.49;100.00;62790.56;4964981;28;20492;-72
2022/09/21 01:49:37;;;;;;;4.20;3.30;;;;;;;-145.49;100.00;62790.56;4969135;28;20073;-72
2022/09/21 01:52:16;;;;;;;11.68;3.83;;;;;;;-145.49;100.00;62790.56;4973594;28;20046;-73
2022/09/21 01:54:54;;;;;;;5.38;3.85;;;;;;;-145.49;100.00;62790.56;4984663;28;20039;-73
2022/09/21 01:57:29;;;;;;;9.98;4.75;;;;;;;-145.49;100.00;62790.56;4965390;28;20042;-72
2022/09/21 01:59:59;;;;;;;2.95;2.33;;;;;;;-145.49;100.00;62790.56;4966401;28;20520;-72
2022/09/21 02:02:40;;;;;;;6.07;3.95;;;;;;;-145.49;100.00;62790.56;4969980;28;20069;-73
2022/09/21 02:05:07;;;;;;;3.95;3.55;;;;;;;-145.49;100.00;62790.56;4977623;28;20030;-72
2022/09/21 02:07:36;;;;;;;6.35;3.58;;;;;;;-145.49;100.00;62790.56;4969716;28;20038;-73
2022/09/21 02:10:04;;;;;;;17.88;4.63;;;;;;;-145.49;100.00;62790.56;4966490;28;20343;-72
2022/09/21 02:12:32;;;;;;;5.07;3.80;;;;;;;-145.49;100.00;62790.56;4965824;28;20038;-72
2022/09/21 02:15:01;;;;;;;6.20;3.47;;;;;;;-145.49;100.00;62790.56;4972341;28;20035;-72
2022/09/21 02:17:38;;;;;;;5.93;4.38;;;;;;;-145.49;100.00;62790.56;4970853;28;20047;-73
2022/09/21 02:20:35;;;;;;;6.80;4.72;;;;;;;-145.49;100.00;62790.56;4986640;28;20074;-73
2022/09/21 02:23:23;;;;;;;5.32;4.88;;;;;;;-145.49;100.00;62790.56;4964306;28;20042;-72
2022/09/21 02:26:01;;;;;;;4.57;3.95;;;;;;;-145.49;100.00;62790.56;4968229;28;20039;-72
2022/09/21 02:28:38;;;;;;;8.00;4.63;;;;;;;-145.49;100.00;62790.56;4971072;28;20039;-72
2022/09/21 02:31:36;;;;;;;5.05;4.00;;;;;;;-145.49;100.00;62790.56;4956841;28;20050;-72
2022/09/21 02:34:15;;;;;;;6.13;3.60;;;;;;;-145.49;100.00;62790.56;4966914;28;20062;-72
2022/09/21 02:36:50;;;;;;;6.80;3.03;;;;;;;-145.49;100.00;62790.56;4972077;28;20045;-72
2022/09/21 02:39:32;;;;;;;8.02;3.95;;;;;;;-145.49;100.00;62790.56;4972533;28;20405;-72
2022/09/21 02:42:07;;;;;;;6.88;3.95;;;;;;;-145.49;100.00;62790.56;4967184;28;20038;-72
2022/09/21 02:44:39;;;;;;;11.20;5.50;;;;;;;-145.49;100.00;62790.56;4986387;28;20031;-72
2022/09/21 02:47:11;;;;;;;7.03;4.65;;;;;;;-145.49;100.00;62790.56;4968557;28;20031;-73
2022/09/21 02:49:50;;;;;;;6.95;4.68;;;;;;;-145.49;100.00;62790.56;4972465;28;20038;-72
2022/09/21 02:52:19;;;;;;;6.20;4.03;;;;;;;-145.49;100.00;62790.56;4974372;28;20060;-72
2022/09/21 02:54:50;;;;;;;8.50;4.65;;;;;;;-145.49;100.00;62790.56;4973001;28;20030;-72
2022/09/21 02:57:20;;;;;;;;;;;;;;;-145.49;100.00;62790.56;4951866;28;20034;-73
2022/09/21 02:59:46;;;;;;;4.32;3.92;;;;;;;-145.49;100.00;62790.56;4969883;28;19917;-73
2022/09/21 03:02:15;;;;;;;40.90;5.10;;;;;;;-145.49;100.00;62790.56;4970758;28;20035;-72
2022/09/21 03:04:49;;;;;;;14.15;5.68;;;;;;;-145.49;100.00;62790.56;4974704;28;20027;-72
2022/09/21 03:07:17;;;;;;;8.57;4.65;;;;;;;-145.49;100.00;62790.56;4975301;28;20038;-73
2022/09/21 03:09:46;;;;;;;5.60;4.03;;;;;;;-145.49;100.00;62790.56;4971567;28;20413;-72
2022/09/21 03:12:14;;;;;;;6.97;4.07;;;;;;;-145.49;100.00;62790.56;4970392;28;20103;-72
2022/09/21 03:14:43;;;;;;;6.43;4.45;;;;;;;-145.49;100.00;62790.56;4971221;28;20041;-72
2022/09/21 03:17:11;;;;;;;3.58;2.97;;;;;;;-145.49;100.00;62790.56;4973897;28;20465;-72
2022/09/21 03:19:40;;;;;;;10.95;3.70;;;;;;;-145.49;100.00;62790.56;4984575;28;20401;-73
2022/09/21 03:22:06;;;;;;;6.53;4.50;;;;;;;-145.49;100.00;62790.56;4972624;28;20046;-72
2022/09/21 03:24:48;;;;;;;9.25;5.82;;;;;;;-145.49;100.00;62790.56;4962553;28;20031;-72
2022/09/21 03:27:17;;;;;;;18.40;3.72;;;;;;;-145.49;100.00;62790.56;4973495;28;20031;-73
2022/09/21 03:29:44;;;;;;;5.45;4.55;;;;;;;-145.49;100.00;62790.56;4956235;28;20039;-73
2022/09/21 03:32:13;;;;;;;5.78;4.25;;;;;;;-145.49;100.00;62790.56;4972107;28;20050;-72
2022/09/21 03:34:40;;;;;;;24.70;4.82;;;;;;;-145.49;100.00;62790.56;4963815;28;20047;-72
2022/09/21 03:37:10;;;;;;;4.13;3.65;;;;;;;-145.49;100.00;62790.56;4989284;28;20035;-73
2022/09/21 03:39:36;;;;;;;5.28;4.78;;;;;;;-145.49;100.00;62790.56;4966037;28;20043;-73
2022/09/21 03:42:08;;;;;;;5.53;4.50;;;;;;;-145.49;100.00;62790.56;4972146;28;20035;-72
2022/09/21 03:44:36;;;;;;;3.65;3.10;;;;;;;-145.49;100.00;62790.56;4970805;28;20027;-72
2022/09/21 03:47:03;;;;;;;4.35;3.70;;;;;;;-145.49;100.00;62790.56;4974583;28;20039;-73
2022/09/21 03:49:29;;;;;;;5.47;4.05;;;;;;;-145.49;100.00;62790.56;4969731;23;20058;-80
2022/09/21 03:51:57;;;;;;;4.63;4.20;;;;;;;-145.49;100.00;62790.56;4969903;28;20035;-81
2022/09/21 03:54:25;;;;;;;9.18;4.45;;;;;;;-145.49;100.00;62790.56;4984948;28;20047;-80
2022/09/21 03:56:54;;;;;;;4.10;3.47;;;;;;;-145.49;100.00;62790.56;4973430;28;20038;-81
2022/09/21 03:59:20;;;;;;;5.55;3.78;;;;;;;-145.49;100.00;62790.56;4972620;28;20035;-81
2022/09/21 04:01:48;;;;;;;4.57;3.88;;;;;;;-145.49;100.00;62790.56;4973401;28;20039;-81
2022/09/21 04:04:17;;;;;;;12.70;5.32;;;;;;;-145.49;100.00;62790.56;4972537;28;20034;-81
2022/09/21 04:06:45;;;;;;;4.32;3.88;;;;;;;-145.49;100.00;62790.56;4974310;28;20481;-81
2022/09/21 04:09:12;;;;;;;5.45;4.93;;;;;;;-145.49;100.00;62790.56;4952376;28;20035;-81
2022/09/21 04:11:38;;;;;;;5.05;3.10;;;;;;;-145.49;100.00;62790.56;4969154;28;20041;-81
2022/09/21 04:14:04;;;;;;;5.45;3.80;;;;;;;-145.49;100.00;62790.56;4973072;28;20393;-81
2022/09/21 04:16:35;;;;;;;7.55;4.40;;;;;;;-145.49;100.00;62790.56;4970603;28;20168;-81
2022/09/21 04:19:06;;;;;;;9.55;4.65;;;;;;;-145.49;100.00;62790.56;4965940;28;20038;-81
2022/09/21 04:21:32;;;;;;;24.20;6.55;;;;;;;-145.49;100.00;62790.56;4968760;28;20050;-81
2022/09/21 04:24:03;;;;;;;5.95;3.95;;;;;;;-145.49;100.00;62790.56;4980317;28;20042;-81
2022/09/21 04:26:34;;;;;;;12.38;4.88;;;;;;;-145.49;100.00;62790.56;4969839;28;20038;-84
2022/09/21 04:29:05;;;;;;;16.65;6.97;;;;;;;-145.49;100.00;62790.56;4986190;28;20034;-81
2022/09/21 04:31:34;;;;;;;45.80;7.22;;;;;;;-145.49;100.00;62790.56;4972646;28;20042;-81
2022/09/21 04:34:05;;;;;;;30.70;9.02;;;;;;;-145.49;100.00;62790.56;4972041;28;20037;-81
2022/09/21 04:36:35;;;;;;;45.33;9.80;;;;;;;-145.49;100.00;62790.56;4982694;28;20376;-81
2022/09/21 04:39:05;;;;;;;90.13;13.05;;;;;;;-145.49;100.00;62790.56;4975273;28;20589;-81
2022/09/21 04:41:33;;;;;;;55.35;9.65;;;;;;;-145.49;100.00;62790.56;4972481;28;20391;-81
2022/09/21 04:44:04;;;;;;;14.50;6.53;;;;;;;-145.49;100.00;62790.56;4986061;28;20041;-81
2022/09/21 04:46:30;;;;;;;58.83;12.98;;;;;;;-145.49;100.00;62790.56;4983535;28;20038;-81
2022/09/21 04:49:00;;;;;;;23.95;5.57;;;;;;;-145.49;100.00;62790.56;4972747;28;20035;-81
2022/09/21 04:51:29;;;;;;;12.73;4.68;;;;;;;-145.49;100.00;62790.56;4971581;28;20041;-80
2022/09/21 04:53:58;;;;;;;32.58;8.38;;;;;;;-145.49;100.00;62790.56;4958398;28;20048;-81
2022/09/21 04:56:33;;;;;;;;;;;;;;;-145.49;100.00;62790.56;4985221;28;20038;-81
2022/09/21 04:59:02;;;;;;;71.05;11.13;;;;;;;-145.49;100.00;62790.56;4962821;28;19929;-81
2022/09/21 05:01:32;;;;;;;49.80;9.88;;;;;;;-145.49;100.00;62790.56;4970252;28;20046;-81
2022/09/21 05:04:01;;;;;;;72.35;13.73;;;;;;;-145.49;100.00;62790.56;4971855;28;20035;-81
2022/09/21 05:06:31;;;;;;;23.42;6.35;;;;;;;-145.49;100.00;62790.56;4971818;28;20037;-81
2022/09/21 05:11:45;;;;;;;19.38;6.38;;;;;;;-145.49;100.00;62790.56;4972724;28;20110;-81
2022/09/21 05:14:13;;;;;;;38.13;7.35;;;;;;;-145.49;100.00;62790.56;4969375;28;20054;-81
2022/09/21 05:16:48;;;;;;;96.95;14.40;;;;;;;-145.49;100.00;62790.56;4981746;28;20034;-81
2022/09/21 05:19:15;;;;;;;38.45;5.53;;;;;;;-145.49;100.00;62790.56;4985653;28;20284;-81
2022/09/21 05:21:44;;;;;;;27.73;5.50;;;;;;;-145.49;100.00;62790.56;4969284;28;20400;-81
2022/09/21 05:24:12;;;;;;;36.15;7.70;;;;;;;-145.49;100.00;62790.56;4987716;28;21118;-81
2022/09/21 05:26:43;;;;;;;33.35;6.38;;;;;;;-145.49;100.00;62790.56;4969750;28;20437;-81
2022/09/21 05:29:14;;;;;;;65.25;9.68;;;;;;;-145.49;100.00;62790.56;4983810;28;20517;-80
2022/09/21 05:31:47;;;;;;;33.15;7.43;;;;;;;-145.49;100.00;62790.56;4991163;28;20489;-81
2022/09/21 05:34:39;;;;;;;208.75;19.98;;;;;;;-145.49;100.00;62790.56;4965056;28;20410;-83
2022/09/21 05:37:30;;;;;;;284.08;28.15;;;;;;;-145.49;100.00;62790.56;4967001;28;20429;-80
2022/09/21 05:40:01;;;;;;;104.95;13.70;;;;;;;-145.49;100.00;62790.56;4977954;28;20050;-82
2022/09/21 05:42:34;;;;;;;16.02;5.38;;;;;;;-145.49;100.00;62790.56;4971092;28;20034;-81
2022/09/21 05:45:03;;;;;;;61.35;9.30;;;;;;;-145.49;100.00;62790.56;4968266;28;20042;-82
2022/09/21 05:47:55;;;;;;;;;;;;;;;-145.49;100.00;62790.56;4967914;28;20058;-82
2022/09/21 05:50:30;;;;;;;65.60;10.98;;;;;;;-145.49;100.00;62790.56;4971484;28;19914;-82
2022/09/21 05:53:21;;;;;;;52.60;10.15;;;;;;;-145.49;100.00;62790.56;4970017;28;20509;-82
2022/09/21 05:56:05;;;;;;;60.42;10.85;;;;;;;-145.49;100.00;62790.56;4969967;28;20047;-82
2022/09/21 05:58:37;;;;;;;100.47;16.23;;;;;;;-145.49;100.00;62790.56;4970634;28;20054;-82
2022/09/21 06:01:44;;;;;;;88.80;11.13;;;;;;;-145.49;100.00;62790.56;4966326;28;20393;-82
2022/09/21 06:04:11;;;;;;;94.20;15.00;;;;;;;-145.49;100.00;62790.56;4971714;28;20050;-82
2022/09/21 06:06:40;;;;;;;18.63;5.00;;;;;;;-145.49;100.00;62790.56;4971142;28;20038;-82
2022/09/21 06:09:11;;;;;;;105.78;9.95;;;;;;;-145.49;100.00;62790.56;4970888;28;20489;-83
2022/09/21 06:11:39;;;;;;;11.13;3.38;;;;;;;-145.49;100.00;62790.56;4973132;28;20108;-81
2022/09/21 06:14:06;;;;;;;37.15;4.97;;;;;;;-145.49;100.00;62790.56;4983556;28;20065;-81
2022/09/21 06:16:39;;;;;;;47.15;7.63;;;;;;;-145.49;100.00;62790.56;4973553;28;20031;-81
2022/09/21 06:19:09;;;;;;;29.83;6.40;;;;;;;-145.49;100.00;62790.56;4983495;28;20043;-80
2022/09/21 06:21:35;;;;;;;24.15;6.35;;;;;;;-145.49;100.00;62790.56;4982465;28;20054;-80
2022/09/21 06:24:02;;;;;;;14.70;4.50;;;;;;;-145.49;100.00;62790.56;4973820;28;20511;-80
2022/09/21 06:26:28;;;;;;;36.65;6.15;;;;;;;-145.49;100.00;62790.56;4987567;28;20042;-81
2022/09/21 06:28:57;;;;;;;17.33;4.90;;;;;;;-145.49;100.00;62790.56;4977606;28;20254;-80
2022/09/21 06:31:25;;;;;;;14.73;4.53;;;;;;;-145.49;100.00;62790.56;4975464;28;20050;-80
2022/09/21 06:33:54;;;;;;;19.35;5.20;;;;;;;-145.49;100.00;62790.56;4976680;28;20393;-81
2022/09/21 06:36:22;;;;;;;35.65;4.53;;;;;;;-145.49;100.00;62790.56;4976597;28;20449;-81
2022/09/21 06:38:48;;;;;;;6.75;4.03;;;;;;;-145.49;100.00;62790.56;4975170;28;20050;-81
2022/09/21 06:41:19;;;;;;;5.90;3.20;;;;;;;-145.49;100.00;62790.56;4974789;28;20037;-81
2022/09/21 06:43:48;;;;;;;6.00;4.10;;;;;;;-145.49;100.00;62790.56;4975640;28;20042;-81
2022/09/21 06:46:16;;;;;;;8.65;4.55;;;;;;;-145.49;100.00;62790.56;4976825;28;20058;-81
2022/09/21 06:48:48;;;;;;;6.80;2.88;;;;;;;-145.49;100.00;62790.56;4976512;28;20401;-83
2022/09/21 06:51:22;;;;;;;21.38;4.05;;;;;;;-145.49;100.00;62790.56;4978042;28;20054;-80
2022/09/21 06:53:55;;;;;;;4.78;3.45;;;;;;;-145.49;100.00;62790.56;4979799;28;20045;-80
2022/09/21 06:56:22;;;;;;;5.10;2.90;;;;;;;-145.49;100.00;62790.56;4995808;28;20050;-81
2022/09/21 06:58:56;;;;;;;3.40;3.10;;;;;;;-145.49;100.00;62790.56;4999395;28;20039;-79
2022/09/21 07:01:24;;;;;;;3.72;2.78;;;;;;;-145.49;100.00;62790.56;5013379;28;20049;-79
2022/09/21 07:03:55;;;;;;;7.15;4.95;;;;;;;-145.49;100.00;62790.56;4986127;28;20488;-80
2022/09/21 07:06:24;;;;;;;4.43;3.65;;;;;;;-145.49;100.00;62790.56;4975905;28;20034;-81
2022/09/21 07:08:55;;;;;;;4.95;4.30;;;;;;;-145.49;100.00;62790.56;4974502;28;20501;-82
2022/09/21 07:11:26;;;;;;;4.28;3.47;;;;;;;-145.49;100.00;62790.56;4975396;28;20047;-82
2022/09/21 07:13:58;;;;;;;4.90;2.97;;;;;;;-145.49;100.00;62790.56;4974861;28;20043;-82
2022/09/21 07:16:24;;;;;;;6.60;3.85;;;;;;;-145.49;100.00;62790.56;4974228;28;20035;-82
2022/09/21 07:18:51;;;;;;;5.32;4.20;;;;;;;-145.49;100.00;62790.56;4989120;28;20050;-81
2022/09/21 07:21:21;;;;;;;4.10;3.63;;;;;;;-145.49;100.00;62790.56;4972488;28;20049;-82
2022/09/21 07:23:53;;;;;;;4.35;3.95;;;;;;;-145.49;100.00;62790.56;4976866;28;20369;-82
2022/09/21 07:26:24;;;;;;;6.63;4.82;;;;;;;-145.49;100.00;62790.56;4958461;28;20050;-82
2022/09/21 07:28:54;;;;;;;4.18;2.75;;;;;;;-145.49;100.00;62790.56;4975353;28;20386;-82
2022/09/21 07:31:22;;;;;;;5.95;4.07;;;;;;;-145.49;100.00;62790.56;4976317;28;20035;-82
2022/09/21 07:33:55;;;;;;;6.60;3.88;;;;;;;-145.49;100.00;62790.56;4972156;28;20039;-82
2022/09/21 07:36:24;;;;;;;;;;;;;;;-145.49;100.00;62790.56;4975717;28;20031;-82
2022/09/21 07:38:53;;;;;;;4.57;3.95;;;;;;;-145.49;100.00;62790.56;4974684;28;19914;-82
2022/09/21 07:41:22;;;;;;;5.07;2.97;;;;;;;-145.49;100.00;62790.56;4973271;28;20038;-82
2022/09/21 07:43:48;;;;;;;6.22;2.92;;;;;;;-145.49;100.00;62790.56;4995239;28;20404;-82
2022/09/21 07:46:19;;;;;;;3.78;2.80;;;;;;;-145.49;100.00;62790.56;4968661;28;20027;-82
2022/09/21 07:48:45;;;;;;;4.28;3.17;;;;;;;-145.49;100.00;62790.56;4975040;28;20039;-82
2022/09/21 07:51:14;;;;;;;3.25;2.58;;;;;;;-145.49;100.00;62790.56;4971717;28;20039;-82
2022/09/21 07:53:45;;;;;;;6.05;3.80;;;;;;;-145.49;100.00;62790.56;4982009;28;20397;-83
2022/09/21 07:56:16;;;;;;;4.80;3.30;;;;;;;-145.49;100.00;62790.56;4967788;28;20515;-83
2022/09/21 08:01:30;;;;;;;4.38;2.78;;;;;;;-145.49;100.00;62790.56;4974677;28;20397;-83
2022/09/21 08:03:59;;;;;;;4.18;3.05;;;;;;;-145.49;100.00;62790.56;4983611;28;20043;-80
2022/09/21 08:06:31;;;;;;;3.28;2.95;;;;;;;-145.49;100.00;62790.56;4965700;28;20042;-80
2022/09/21 08:08:58;;;;;;;4.18;3.80;;;;;;;-145.49;100.00;62790.56;4974405;28;20038;-82
2022/09/21 08:11:31;;;;;;;5.88;3.70;;;;;;;-145.49;100.00;62790.56;4974620;28;20477;-81
2022/09/21 08:14:03;;;;;;;4.18;3.38;;;;;;;-145.49;100.00;62790.56;4980890;28;20035;-81
2022/09/21 08:16:37;;;;;;;4.30;2.92;;;;;;;-145.49;100.00;62790.56;4969447;28;20481;-83
2022/09/21 08:19:04;;;;;;;4.40;3.33;;;;;;;-145.49;100.00;62790.56;4971108;28;20393;-84
2022/09/21 08:21:33;;;;;;;5.72;3.17;;;;;;;-145.49;100.00;62790.56;4972927;28;20047;-83
2022/09/21 08:24:01;;;;;;;3.75;3.03;;;;;;;-145.49;100.00;62790.56;4959502;28;20038;-84
2022/09/21 08:26:30;;;;;;;4.55;3.65;;;;;;;-145.49;100.00;62790.56;5010093;28;20034;-84
2022/09/21 08:28:57;;;;;;;4.63;3.08;;;;;;;-145.49;100.00;62790.56;4992062;28;20485;-84
2022/09/21 08:31:26;;;;;;;6.82;2.75;;;;;;;-145.49;100.00;62790.56;4968322;28;20046;-84
2022/09/21 08:33:56;;;;;;;4.95;3.72;;;;;;;-145.49;100.00;62790.56;4971448;28;20057;-84
2022/09/21 08:36:25;;;;;;;3.38;1.92;;;;;;;-145.49;100.00;62790.56;4984921;28;20034;-84
2022/09/21 08:38:53;;;;;;;2.92;2.20;;;;;;;-145.49;100.00;62790.56;4956297;28;20042;-85
2022/09/21 08:41:24;;;;;;;3.35;2.42;;;;;;;-145.49;100.00;62790.56;4972167;28;20484;-85
2022/09/21 08:44:27;;;;;;;3.63;2.15;;;;;;;-145.49;100.00;62790.56;4954156;28;20039;-83
2022/09/21 08:47:04;;;;;;;2.92;2.42;;;;;;;-145.49;100.00;62790.56;4977808;28;20053;-86
2022/09/21 08:49:42;;;;;;;2.80;2.05;;;;;;;-145.49;100.00;62790.56;4952845;28;20038;-85
2022/09/21 08:52:16;;;;;;;3.08;2.20;;;;;;;-145.49;100.00;62790.56;4972332;28;20046;-84
2022/09/21 08:54:52;;;;;;;5.15;2.47;;;;;;;-145.49;100.00;62790.56;4972294;28;20046;-85
2022/09/21 08:57:31;;;;;;;2.25;1.67;;;;;;;-145.49;100.00;62790.56;4971482;28;20034;-87
2022/09/21 09:00:03;;;;;;;2.30;1.15;;;;;;;-145.49;100.00;62790.56;4968271;28;20035;-85
2022/09/21 09:02:37;;;;;;;1.30;1.20;;;;;;;-145.49;100.00;62790.56;4969575;28;20370;-85
2022/09/21 09:05:19;;;;;;;2.05;1.85;;;;;;;-145.49;100.00;62790.56;4984072;28;20042;-84
2022/09/21 09:07:52;;;;;;;1.77;1.33;;;;;;;-145.49;100.00;62790.56;4998299;28;20045;-83
2022/09/21 09:10:35;;;;;;;1.67;1.45;;;;;;;-145.49;100.00;62790.56;4971365;28;20070;-84
2022/09/21 09:13:27;;;;;;;5.85;1.92;;;;;;;-145.49;100.00;62790.56;4975333;28;20047;-84
2022/09/21 09:16:07;;;;;;;4.80;2.15;;;;;;;-145.49;100.00;62790.56;4986730;28;20039;-85
2022/09/21 09:18:48;;;;;;;2.10;1.90;;;;;;;-145.49;100.00;62790.56;4979206;28;20502;-84
2022/09/21 09:21:16;;;;;;;3.05;1.65;;;;;;;-145.49;100.00;62790.56;4969869;28;20039;-86
2022/09/21 09:23:50;;;;;;;1.63;1.13;;;;;;;-145.49;100.00;62790.56;4972249;28;20045;-84
2022/09/21 09:26:26;;;;;;;2.25;1.35;;;;;;;-145.49;100.00;62790.56;4976602;28;20031;-85
2022/09/21 09:29:08;;;;;;;1.77;1.05;;;;;;;-145.49;100.00;62790.56;4971911;28;20038;-85
2022/09/21 09:31:36;;;;;;;2.40;1.65;;;;;;;-145.49;100.00;62790.56;4972578;28;20050;-84
2022/09/21 09:34:14;;;;;;;1.27;0.70;;;;;;;-145.49;100.00;62790.56;4972946;28;20038;-86
2022/09/21 09:36:45;;;;;;;2.88;0.98;;;;;;;-145.49;100.00;62790.56;4970617;28;20035;-85
2022/09/21 09:39:15;;;;;;;0.95;0.80;;;;;;;-145.49;100.00;62790.56;4974941;28;20397;-85
2022/09/21 09:42:11;;;;;;;7.10;0.98;;;;;;;-145.49;100.00;62790.56;4969730;28;20426;-84
2022/09/21 09:45:14;;;;;;;1.48;1.02;;;;;;;-145.49;100.00;62790.56;4971411;28;20038;-85
2022/09/21 09:47:59;;;;;;;2.25;1.20;;;;;;;-145.49;100.00;62790.56;4979095;28;20049;-85
2022/09/21 09:50:33;;;;;;;2.00;0.77;;;;;;;-145.49;100.00;62790.56;4990925;23;20054;-72
2022/09/21 09:53:25;;;;;;;1.95;1.45;;;;;;;-145.49;100.00;62790.56;4979658;28;20150;-73
2022/09/21 09:55:59;;;;;;;3.78;1.00;;;;;;;-145.49;100.00;62790.56;4988455;28;20074;-73
2022/09/21 09:58:25;;;;;;;1.33;0.82;;;;;;;-145.49;100.00;62790.56;4955533;28;20042;-73
2022/09/21 10:00:54;;;;;;;3.05;1.00;;;;;;;-145.49;100.00;62790.56;4974821;28;20043;-73
2022/09/21 10:03:24;;;;;;;2.55;0.80;;;;;;;-145.49;100.00;62790.56;4972500;28;20038;-74
2022/09/21 10:05:53;;;;;;;2.75;1.10;;;;;;;-145.49;100.00;62790.56;4967532;28;20042;-75
2022/09/21 10:08:43;;;;;;;2.70;0.88;;;;;;;-145.49;100.00;62790.56;4983930;28;20511;-75
2022/09/21 10:11:12;;;;;;;1.02;0.60;;;;;;;-145.49;100.00;62790.56;4969070;28;20022;-73
2022/09/21 10:13:41;;;;;;;2.83;1.20;;;;;;;-145.49;100.00;62790.56;4970533;28;20043;-74
2022/09/21 10:16:17;;;;;;;1.85;1.48;;;;;;;-145.49;100.00;62790.56;4970749;28;20404;-74
2022/09/21 10:18:47;;;;;;;1.13;0.82;;;;;;;-145.49;100.00;62790.56;4962399;28;20035;-74
2022/09/21 10:21:22;;;;;;;1.67;1.10;;;;;;;-145.49;100.00;62790.56;4971816;28;20030;-74
2022/09/21 10:23:55;;;;;;;1.20;0.80;;;;;;;-145.49;100.00;62790.56;4968561;28;20038;-75
2022/09/21 10:26:55;;;;;;;1.52;0.93;;;;;;;-145.49;100.00;62790.56;4985811;28;20022;-75
2022/09/21 10:29:24;;;;;;;1.35;1.02;;;;;;;-145.49;100.00;62790.56;4967481;28;20050;-74
2022/09/21 10:31:58;;;;;;;2.55;1.48;;;;;;;-145.49;100.00;62790.56;4971019;28;20400;-74
2022/09/21 10:34:27;;;;;;;2.92;1.00;;;;;;;-145.49;100.00;62790.56;4971468;28;20045;-73
2022/09/21 10:36:58;;;;;;;3.03;1.55;;;;;;;-145.49;100.00;62790.56;4964287;28;20039;-73
2022/09/21 10:39:31;;;;;;;;;;;;;;;-145.49;100.00;62790.56;4967096;28;20440;-73
2022/09/21 10:42:04;;;;;;;1.85;0.90;;;;;;;-145.49;100.00;62790.56;4959502;28;19914;-72
2022/09/21 10:44:40;;;;;;;2.30;1.40;;;;;;;-145.49;100.00;62790.56;4967023;28;20043;-73
2022/09/21 10:47:22;;;;;;;2.17;1.23;;;;;;;-145.49;100.00;62790.56;4963646;28;20030;-73
2022/09/21 10:49:57;;;;;;;2.15;0.90;;;;;;;-145.49;100.00;62790.56;4970801;28;20039;-73
2022/09/21 10:52:43;;;;;;;2.00;0.50;;;;;;;-145.49;100.00;62790.56;4971710;28;20042;-74
2022/09/21 10:55:18;;;;;;;1.80;1.08;;;;;;;-145.49;100.00;62790.56;4973953;28;20388;-73
2022/09/21 10:57:45;;;;;;;3.78;0.70;;;;;;;-145.49;100.00;62790.56;4973601;28;20035;-74
2022/09/21 11:00:24;;;;;;;3.30;0.68;;;;;;;-145.49;100.00;62790.56;4975412;28;20121;-73
2022/09/21 11:02:59;;;;;;;1.75;0.68;;;;;;;-145.49;100.00;62790.56;4974050;28;20043;-73
2022/09/21 11:05:32;;;;;;;0.95;0.52;;;;;;;-145.49;100.00;62790.56;4974152;28;20026;-73
2022/09/21 11:08:17;;;;;;;3.00;0.82;;;;;;;-145.49;100.00;62790.56;4973622;28;20045;-74
2022/09/21 11:11:04;;;;;;;6.10;1.08;;;;;;;-145.49;100.00;62790.56;4975218;28;20408;-74
2022/09/21 11:13:39;;;;;;;2.80;1.75;;;;;;;-145.49;100.00;62790.56;4973301;28;20035;-72
2022/09/21 11:16:28;;;;;;;0.80;0.60;;;;;;;-145.49;100.00;62790.56;4967502;28;20386;-73
2022/09/21 11:19:26;;;;;;;0.98;0.85;;;;;;;-145.49;100.00;62790.56;4965441;28;20078;-73
2022/09/21 11:22:13;;;;;;;1.63;1.08;;;;;;;-145.49;100.00;62790.56;4975247;28;20049;-73
2022/09/21 11:24:59;;;;;;;1.48;0.73;;;;;;;-145.49;100.00;62790.56;4965050;28;20038;-74
2022/09/21 11:27:40;;;;;;;1.15;0.85;;;;;;;-145.49;100.00;62790.56;4966429;28;20031;-74
2022/09/21 11:30:14;;;;;;;2.50;1.13;;;;;;;-145.49;100.00;62790.56;4968023;28;20035;-74
2022/09/21 11:33:12;;;;;;;2.10;0.90;;;;;;;-145.49;100.00;62790.56;4989967;28;20039;-74
2022/09/21 11:36:01;;;;;;;2.28;0.70;;;;;;;-145.49;100.00;62790.56;4973290;28;20039;-74
2022/09/21 11:38:51;;;;;;;0.95;0.70;;;;;;;-145.49;100.00;62790.56;4972731;28;20046;-74
2022/09/21 11:41:23;;;;;;;0.75;0.70;;;;;;;-145.49;100.00;62790.56;4974428;28;20408;-74